sensor_id;sensor_type;location;lat;lon;timestamp;temperature;humidity
14006;DHT22;7078;51.542;7.314;2024-03-17T00:01:03;5.40;99.90
14006;DHT22;7078;51.542;7.314;2024-03-17T00:03:30;5.40;99.90
14006;DHT22;7078;51.542;7.314;2024-03-17T00:06:00;5.40;99.90
14006;DHT22;7078;51.542;7.314;2024-03-17T00:08:26;5.50;99.90
14006;DHT22;7078;51.542;7.314;2024-03-17T00:10:54;5.40;99.90
14006;DHT22;7078;51.542;7.314;2024-03-17T00:13:21;5.40;99.90
14006;DHT22;7078;51.542;7.314;2024-03-17T00:15:50;5.40;99.90
14006;DHT22;7078;51.542;7.314;2024-03-17T00:18:15;5.30;99.90
14006;DHT22;7078;51.542;7.314;2024-03-17T00:20:41;5.30;99.90
14006;DHT22;7078;51.542;7.314;2024-03-17T00:23:07;5.30;99.90
14006;DHT22;7078;51.542;7.314;2024-03-17T00:25:35;5.30;99.90
14006;DHT22;7078;51.542;7.314;2024-03-17T00:28:01;5.30;99.90
14006;DHT22;7078;51.542;7.314;2024-03-17T00:30:27;5.20;99.90
14006;DHT22;7078;51.542;7.314;2024-03-17T00:32:53;5.20;99.90
14006;DHT22;7078;51.542;7.314;2024-03-17T00:35:18;5.20;99.90
14006;DHT22;7078;51.542;7.314;2024-03-17T00:37:47;5.20;99.90
14006;DHT22;7078;51.542;7.314;2024-03-17T00:40:13;5.20;99.90
14006;DHT22;7078;51.542;7.314;2024-03-17T00:42:42;5.10;99.90
14006;DHT22;7078;51.542;7.314;2024-03-17T00:45:08;5.10;99.90
14006;DHT22;7078;51.542;7.314;2024-03-17T00:47:35;5.10;99.90
14006;DHT22;7078;51.542;7.314;2024-03-17T00:50:01;5.10;99.90
14006;DHT22;7078;51.542;7.314;2024-03-17T00:52:26;5.10;99.90
14006;DHT22;7078;51.542;7.314;2024-03-17T00:54:52;5.00;99.90
14006;DHT22;7078;51.542;7.314;2024-03-17T00:57:19;5.00;99.90
14006;DHT22;7078;51.542;7.314;2024-03-17T00:59:44;5.00;99.90
14006;DHT22;7078;51.542;7.314;2024-03-17T01:02:15;4.90;99.90
14006;DHT22;7078;51.542;7.314;2024-03-17T01:04:44;4.90;99.90
14006;DHT22;7078;51.542;7.314;2024-03-17T01:07:10;4.90;99.90
14006;DHT22;7078;51.542;7.314;2024-03-17T01:09:36;4.90;99.90
14006;DHT22;7078;51.542;7.314;2024-03-17T01:12:02;4.90;99.90
14006;DHT22;7078;51.542;7.314;2024-03-17T01:14:28;4.80;99.90
14006;DHT22;7078;51.542;7.314;2024-03-17T01:16:54;4.80;99.90
14006;DHT22;7078;51.542;7.314;2024-03-17T01:19:20;4.80;99.90
14006;DHT22;7078;51.542;7.314;2024-03-17T01:21:46;4.90;99.90
14006;DHT22;7078;51.542;7.314;2024-03-17T01:24:12;4.80;99.90
14006;DHT22;7078;51.542;7.314;2024-03-17T01:26:38;4.80;99.90
14006;DHT22;7078;51.542;7.314;2024-03-17T01:29:03;4.80;99.90
14006;DHT22;7078;51.542;7.314;2024-03-17T01:31:29;4.80;99.90
14006;DHT22;7078;51.542;7.314;2024-03-17T01:33:54;4.80;99.90
14006;DHT22;7078;51.542;7.314;2024-03-17T01:36:21;4.80;99.90
14006;DHT22;7078;51.542;7.314;2024-03-17T01:38:46;4.80;99.90
14006;DHT22;7078;51.542;7.314;2024-03-17T01:41:12;4.70;99.90
14006;DHT22;7078;51.542;7.314;2024-03-17T01:43:39;4.70;99.90
14006;DHT22;7078;51.542;7.314;2024-03-17T01:46:05;4.70;99.90
14006;DHT22;7078;51.542;7.314;2024-03-17T01:48:31;4.70;99.90
14006;DHT22;7078;51.542;7.314;2024-03-17T01:50:57;4.70;99.90
14006;DHT22;7078;51.542;7.314;2024-03-17T01:53:23;4.70;99.90
14006;DHT22;7078;51.542;7.314;2024-03-17T01:55:51;4.60;99.90
14006;DHT22;7078;51.542;7.314;2024-03-17T01:58:20;4.60;99.90
14006;DHT22;7078;51.542;7.314;2024-03-17T02:00:46;4.60;99.90
14006;DHT22;7078;51.542;7.314;2024-03-17T02:03:12;4.60;99.90
14006;DHT22;7078;51.542;7.314;2024-03-17T02:05:38;4.60;99.90
14006;DHT22;7078;51.542;7.314;2024-03-17T02:08:05;4.70;99.90
14006;DHT22;7078;51.542;7.314;2024-03-17T02:10:32;4.70;99.90
14006;DHT22;7078;51.542;7.314;2024-03-17T02:12:58;4.70;99.90
14006;DHT22;7078;51.542;7.314;2024-03-17T02:15:24;4.70;99.90
14006;DHT22;7078;51.542;7.314;2024-03-17T02:17:50;4.80;99.90
14006;DHT22;7078;51.542;7.314;2024-03-17T02:20:15;4.80;99.90
14006;DHT22;7078;51.542;7.314;2024-03-17T02:22:41;4.80;99.90
14006;DHT22;7078;51.542;7.314;2024-03-17T02:25:07;4.90;99.90
14006;DHT22;7078;51.542;7.314;2024-03-17T02:27:36;4.90;99.90
14006;DHT22;7078;51.542;7.314;2024-03-17T02:30:05;4.90;99.90
14006;DHT22;7078;51.542;7.314;2024-03-17T02:32:36;4.90;99.90
14006;DHT22;7078;51.542;7.314;2024-03-17T02:35:02;4.90;99.90
14006;DHT22;7078;51.542;7.314;2024-03-17T02:37:27;5.00;99.90
14006;DHT22;7078;51.542;7.314;2024-03-17T02:39:53;5.00;99.90
14006;DHT22;7078;51.542;7.314;2024-03-17T02:42:20;5.00;99.90
14006;DHT22;7078;51.542;7.314;2024-03-17T02:44:46;5.00;99.90
14006;DHT22;7078;51.542;7.314;2024-03-17T02:47:11;5.00;99.90
14006;DHT22;7078;51.542;7.314;2024-03-17T02:49:40;5.00;99.90
14006;DHT22;7078;51.542;7.314;2024-03-17T02:52:09;5.00;99.90
14006;DHT22;7078;51.542;7.314;2024-03-17T02:54:35;4.90;99.90
14006;DHT22;7078;51.542;7.314;2024-03-17T02:57:02;4.90;99.90
14006;DHT22;7078;51.542;7.314;2024-03-17T02:59:27;4.90;99.90
14006;DHT22;7078;51.542;7.314;2024-03-17T03:01:53;4.90;99.90
14006;DHT22;7078;51.542;7.314;2024-03-17T03:04:19;4.90;99.90
14006;DHT22;7078;51.542;7.314;2024-03-17T03:06:45;4.90;99.90
14006;DHT22;7078;51.542;7.314;2024-03-17T03:09:11;4.90;99.90
14006;DHT22;7078;51.542;7.314;2024-03-17T03:11:41;4.90;99.90
14006;DHT22;7078;51.542;7.314;2024-03-17T03:14:07;5.00;99.90
14006;DHT22;7078;51.542;7.314;2024-03-17T03:16:33;5.00;99.90
14006;DHT22;7078;51.542;7.314;2024-03-17T03:18:59;5.00;99.90
14006;DHT22;7078;51.542;7.314;2024-03-17T03:21:24;5.00;99.90
14006;DHT22;7078;51.542;7.314;2024-03-17T03:23:50;5.00;99.90
14006;DHT22;7078;51.542;7.314;2024-03-17T03:26:17;5.00;99.90
14006;DHT22;7078;51.542;7.314;2024-03-17T03:28:43;5.00;99.90
14006;DHT22;7078;51.542;7.314;2024-03-17T03:31:12;4.90;99.90
14006;DHT22;7078;51.542;7.314;2024-03-17T03:33:41;4.90;99.90
14006;DHT22;7078;51.542;7.314;2024-03-17T03:36:14;4.90;99.90
14006;DHT22;7078;51.542;7.314;2024-03-17T03:38:40;4.90;99.90
14006;DHT22;7078;51.542;7.314;2024-03-17T03:41:09;4.90;99.90
14006;DHT22;7078;51.542;7.314;2024-03-17T03:43:36;4.90;99.90
14006;DHT22;7078;51.542;7.314;2024-03-17T03:46:02;4.90;99.90
14006;DHT22;7078;51.542;7.314;2024-03-17T03:48:28;4.90;99.90
14006;DHT22;7078;51.542;7.314;2024-03-17T03:50:54;5.00;99.90
14006;DHT22;7078;51.542;7.314;2024-03-17T03:53:22;5.00;99.90
14006;DHT22;7078;51.542;7.314;2024-03-17T03:55:48;5.00;99.90
14006;DHT22;7078;51.542;7.314;2024-03-17T03:58:14;5.00;99.90
14006;DHT22;7078;51.542;7.314;2024-03-17T04:00:39;5.00;99.90
14006;DHT22;7078;51.542;7.314;2024-03-17T04:03:05;5.00;99.90
14006;DHT22;7078;51.542;7.314;2024-03-17T04:05:31;5.00;99.90
14006;DHT22;7078;51.542;7.314;2024-03-17T04:07:57;5.00;99.90
14006;DHT22;7078;51.542;7.314;2024-03-17T04:10:23;5.00;99.90
14006;DHT22;7078;51.542;7.314;2024-03-17T04:12:50;5.00;99.90
14006;DHT22;7078;51.542;7.314;2024-03-17T04:15:16;5.00;99.90
14006;DHT22;7078;51.542;7.314;2024-03-17T04:17:42;5.00;99.90
14006;DHT22;7078;51.542;7.314;2024-03-17T04:20:08;4.90;99.90
14006;DHT22;7078;51.542;7.314;2024-03-17T04:22:35;4.90;99.90
14006;DHT22;7078;51.542;7.314;2024-03-17T04:25:01;4.90;99.90
14006;DHT22;7078;51.542;7.314;2024-03-17T04:27:26;4.90;99.90
14006;DHT22;7078;51.542;7.314;2024-03-17T04:29:53;4.90;99.90
14006;DHT22;7078;51.542;7.314;2024-03-17T04:32:20;4.90;99.90
14006;DHT22;7078;51.542;7.314;2024-03-17T04:34:46;4.90;99.90
14006;DHT22;7078;51.542;7.314;2024-03-17T04:37:12;4.90;99.90
14006;DHT22;7078;51.542;7.314;2024-03-17T04:39:42;5.00;99.90
14006;DHT22;7078;51.542;7.314;2024-03-17T04:42:11;5.00;99.90
14006;DHT22;7078;51.542;7.314;2024-03-17T04:44:37;5.00;99.90
14006;DHT22;7078;51.542;7.314;2024-03-17T04:47:04;5.10;99.90
14006;DHT22;7078;51.542;7.314;2024-03-17T04:49:41;5.10;99.90
14006;DHT22;7078;51.542;7.314;2024-03-17T04:52:08;5.10;99.90
14006;DHT22;7078;51.542;7.314;2024-03-17T04:54:34;5.10;99.90
14006;DHT22;7078;51.542;7.314;2024-03-17T04:57:00;5.10;99.90
14006;DHT22;7078;51.542;7.314;2024-03-17T04:59:26;5.10;99.90
14006;DHT22;7078;51.542;7.314;2024-03-17T05:01:52;5.10;99.90
14006;DHT22;7078;51.542;7.314;2024-03-17T05:04:18;5.10;99.90
14006;DHT22;7078;51.542;7.314;2024-03-17T05:06:44;5.10;99.90
14006;DHT22;7078;51.542;7.314;2024-03-17T05:09:13;5.10;99.90
14006;DHT22;7078;51.542;7.314;2024-03-17T05:11:39;5.00;99.90
14006;DHT22;7078;51.542;7.314;2024-03-17T05:14:05;4.90;99.90
14006;DHT22;7078;51.542;7.314;2024-03-17T05:16:31;5.00;99.90
14006;DHT22;7078;51.542;7.314;2024-03-17T05:18:56;4.90;99.90
14006;DHT22;7078;51.542;7.314;2024-03-17T05:21:22;4.90;99.90
14006;DHT22;7078;51.542;7.314;2024-03-17T05:23:49;4.90;99.90
14006;DHT22;7078;51.542;7.314;2024-03-17T05:26:15;4.80;99.90
14006;DHT22;7078;51.542;7.314;2024-03-17T05:28:40;4.90;99.90
14006;DHT22;7078;51.542;7.314;2024-03-17T05:31:06;4.90;99.90
14006;DHT22;7078;51.542;7.314;2024-03-17T05:33:31;5.00;99.90
14006;DHT22;7078;51.542;7.314;2024-03-17T05:35:58;5.00;99.90
14006;DHT22;7078;51.542;7.314;2024-03-17T05:38:26;4.90;99.90
14006;DHT22;7078;51.542;7.314;2024-03-17T05:41:03;4.90;99.90
14006;DHT22;7078;51.542;7.314;2024-03-17T05:43:30;4.90;99.90
14006;DHT22;7078;51.542;7.314;2024-03-17T05:46:00;4.90;99.90
14006;DHT22;7078;51.542;7.314;2024-03-17T05:48:26;4.80;99.90
14006;DHT22;7078;51.542;7.314;2024-03-17T05:50:53;4.80;99.90
14006;DHT22;7078;51.542;7.314;2024-03-17T05:53:22;4.80;99.90
14006;DHT22;7078;51.542;7.314;2024-03-17T05:55:51;4.70;99.90
14006;DHT22;7078;51.542;7.314;2024-03-17T05:58:17;4.70;99.90
14006;DHT22;7078;51.542;7.314;2024-03-17T06:00:43;4.80;99.90
14006;DHT22;7078;51.542;7.314;2024-03-17T06:03:09;4.80;99.90
14006;DHT22;7078;51.542;7.314;2024-03-17T06:05:39;4.80;99.90
14006;DHT22;7078;51.542;7.314;2024-03-17T06:08:08;4.80;99.90
14006;DHT22;7078;51.542;7.314;2024-03-17T06:10:35;4.80;99.90
14006;DHT22;7078;51.542;7.314;2024-03-17T06:13:01;4.80;99.90
14006;DHT22;7078;51.542;7.314;2024-03-17T06:15:27;4.80;99.90
14006;DHT22;7078;51.542;7.314;2024-03-17T06:17:53;4.90;99.90
14006;DHT22;7078;51.542;7.314;2024-03-17T06:20:24;4.90;99.90
14006;DHT22;7078;51.542;7.314;2024-03-17T06:22:53;4.90;99.90
14006;DHT22;7078;51.542;7.314;2024-03-17T06:25:18;4.90;99.90
14006;DHT22;7078;51.542;7.314;2024-03-17T06:27:44;4.90;99.90
14006;DHT22;7078;51.542;7.314;2024-03-17T06:30:13;5.00;99.90
14006;DHT22;7078;51.542;7.314;2024-03-17T06:32:45;5.10;99.90
14006;DHT22;7078;51.542;7.314;2024-03-17T06:35:12;5.10;99.90
14006;DHT22;7078;51.542;7.314;2024-03-17T06:37:41;5.20;99.90
14006;DHT22;7078;51.542;7.314;2024-03-17T06:40:08;5.30;99.90
14006;DHT22;7078;51.542;7.314;2024-03-17T06:42:37;5.40;99.90
14006;DHT22;7078;51.542;7.314;2024-03-17T06:45:03;5.40;99.90
14006;DHT22;7078;51.542;7.314;2024-03-17T06:47:29;5.50;99.90
14006;DHT22;7078;51.542;7.314;2024-03-17T06:49:54;5.50;99.90
14006;DHT22;7078;51.542;7.314;2024-03-17T06:52:20;5.70;99.90
14006;DHT22;7078;51.542;7.314;2024-03-17T06:54:47;5.80;99.90
14006;DHT22;7078;51.542;7.314;2024-03-17T06:57:15;5.90;99.90
14006;DHT22;7078;51.542;7.314;2024-03-17T06:59:41;6.00;99.90
14006;DHT22;7078;51.542;7.314;2024-03-17T07:02:07;6.20;99.90
14006;DHT22;7078;51.542;7.314;2024-03-17T07:04:32;6.40;99.90
14006;DHT22;7078;51.542;7.314;2024-03-17T07:06:58;6.50;99.90
14006;DHT22;7078;51.542;7.314;2024-03-17T07:09:24;6.70;99.90
14006;DHT22;7078;51.542;7.314;2024-03-17T07:11:49;6.80;99.90
14006;DHT22;7078;51.542;7.314;2024-03-17T07:14:15;6.90;99.90
14006;DHT22;7078;51.542;7.314;2024-03-17T07:16:40;7.00;99.90
14006;DHT22;7078;51.542;7.314;2024-03-17T07:19:06;7.10;99.90
14006;DHT22;7078;51.542;7.314;2024-03-17T07:21:31;7.40;99.90
14006;DHT22;7078;51.542;7.314;2024-03-17T07:23:57;7.60;99.90
14006;DHT22;7078;51.542;7.314;2024-03-17T07:26:26;7.90;99.90
14006;DHT22;7078;51.542;7.314;2024-03-17T07:28:51;8.10;99.90
14006;DHT22;7078;51.542;7.314;2024-03-17T07:31:17;8.40;99.90
14006;DHT22;7078;51.542;7.314;2024-03-17T07:33:42;8.60;99.90
14006;DHT22;7078;51.542;7.314;2024-03-17T07:36:08;8.70;99.90
14006;DHT22;7078;51.542;7.314;2024-03-17T07:38:35;8.80;99.90
14006;DHT22;7078;51.542;7.314;2024-03-17T07:41:03;8.80;99.90
14006;DHT22;7078;51.542;7.314;2024-03-17T07:43:31;8.90;99.90
14006;DHT22;7078;51.542;7.314;2024-03-17T07:46:04;8.90;99.90
14006;DHT22;7078;51.542;7.314;2024-03-17T07:48:31;9.00;99.90
14006;DHT22;7078;51.542;7.314;2024-03-17T07:51:04;9.00;99.90
14006;DHT22;7078;51.542;7.314;2024-03-17T07:53:30;9.00;99.90
14006;DHT22;7078;51.542;7.314;2024-03-17T07:55:57;9.10;99.90
14006;DHT22;7078;51.542;7.314;2024-03-17T07:58:24;9.10;99.90
14006;DHT22;7078;51.542;7.314;2024-03-17T08:00:51;9.10;99.90
14006;DHT22;7078;51.542;7.314;2024-03-17T08:03:18;9.10;99.90
14006;DHT22;7078;51.542;7.314;2024-03-17T08:05:50;9.10;99.90
14006;DHT22;7078;51.542;7.314;2024-03-17T08:08:17;9.10;99.90
14006;DHT22;7078;51.542;7.314;2024-03-17T08:10:42;9.20;99.90
14006;DHT22;7078;51.542;7.314;2024-03-17T08:13:08;9.30;99.90
14006;DHT22;7078;51.542;7.314;2024-03-17T08:15:36;9.40;99.90
14006;DHT22;7078;51.542;7.314;2024-03-17T08:18:02;9.40;99.90
14006;DHT22;7078;51.542;7.314;2024-03-17T08:20:29;9.50;99.90
14006;DHT22;7078;51.542;7.314;2024-03-17T08:22:55;9.60;99.90
14006;DHT22;7078;51.542;7.314;2024-03-17T08:25:20;9.70;99.90
14006;DHT22;7078;51.542;7.314;2024-03-17T08:27:46;9.80;99.90
14006;DHT22;7078;51.542;7.314;2024-03-17T08:30:12;9.90;99.90
14006;DHT22;7078;51.542;7.314;2024-03-17T08:32:38;9.90;99.90
14006;DHT22;7078;51.542;7.314;2024-03-17T08:35:05;10.00;99.90
14006;DHT22;7078;51.542;7.314;2024-03-17T08:37:31;10.10;99.90
14006;DHT22;7078;51.542;7.314;2024-03-17T08:39:57;10.30;99.90
14006;DHT22;7078;51.542;7.314;2024-03-17T08:42:22;10.30;99.90
14006;DHT22;7078;51.542;7.314;2024-03-17T08:44:48;10.40;99.90
14006;DHT22;7078;51.542;7.314;2024-03-17T08:47:13;10.50;99.90
14006;DHT22;7078;51.542;7.314;2024-03-17T08:49:39;10.60;99.90
14006;DHT22;7078;51.542;7.314;2024-03-17T08:52:04;10.70;99.90
14006;DHT22;7078;51.542;7.314;2024-03-17T08:54:30;10.80;99.90
14006;DHT22;7078;51.542;7.314;2024-03-17T08:56:55;10.90;99.90
14006;DHT22;7078;51.542;7.314;2024-03-17T08:59:21;10.90;99.90
14006;DHT22;7078;51.542;7.314;2024-03-17T09:01:46;10.90;99.90
14006;DHT22;7078;51.542;7.314;2024-03-17T09:04:12;11.00;99.90
14006;DHT22;7078;51.542;7.314;2024-03-17T09:06:38;11.10;99.90
14006;DHT22;7078;51.542;7.314;2024-03-17T09:09:03;11.30;99.90
14006;DHT22;7078;51.542;7.314;2024-03-17T09:11:29;11.40;98.40
14006;DHT22;7078;51.542;7.314;2024-03-17T09:13:54;11.50;96.20
14006;DHT22;7078;51.542;7.314;2024-03-17T09:16:20;11.50;97.90
14006;DHT22;7078;51.542;7.314;2024-03-17T09:18:48;11.70;97.60
14006;DHT22;7078;51.542;7.314;2024-03-17T09:21:14;11.90;95.00
14006;DHT22;7078;51.542;7.314;2024-03-17T09:23:41;12.00;93.30
14006;DHT22;7078;51.542;7.314;2024-03-17T09:26:09;12.10;91.40
14006;DHT22;7078;51.542;7.314;2024-03-17T09:28:37;12.10;92.40
14006;DHT22;7078;51.542;7.314;2024-03-17T09:31:03;12.10;91.50
14006;DHT22;7078;51.542;7.314;2024-03-17T09:33:32;12.20;92.60
14006;DHT22;7078;51.542;7.314;2024-03-17T09:35:59;12.30;91.20
14006;DHT22;7078;51.542;7.314;2024-03-17T09:38:26;12.50;90.80
14006;DHT22;7078;51.542;7.314;2024-03-17T09:40:52;12.50;90.50
14006;DHT22;7078;51.542;7.314;2024-03-17T09:43:22;12.40;89.60
14006;DHT22;7078;51.542;7.314;2024-03-17T09:45:48;12.40;90.50
14006;DHT22;7078;51.542;7.314;2024-03-17T09:48:15;12.50;90.30
14006;DHT22;7078;51.542;7.314;2024-03-17T09:50:52;12.60;89.30
14006;DHT22;7078;51.542;7.314;2024-03-17T09:55:51;12.70;88.00
14006;DHT22;7078;51.542;7.314;2024-03-17T09:58:17;12.70;86.70
14006;DHT22;7078;51.542;7.314;2024-03-17T10:00:43;12.80;86.50
14006;DHT22;7078;51.542;7.314;2024-03-17T10:03:09;12.90;85.80
14006;DHT22;7078;51.542;7.314;2024-03-17T10:05:34;13.10;84.00
14006;DHT22;7078;51.542;7.314;2024-03-17T10:08:00;13.30;81.30
14006;DHT22;7078;51.542;7.314;2024-03-17T10:10:26;13.30;79.30
14006;DHT22;7078;51.542;7.314;2024-03-17T10:12:52;13.40;81.50
14006;DHT22;7078;51.542;7.314;2024-03-17T10:15:19;13.60;79.50
14006;DHT22;7078;51.542;7.314;2024-03-17T10:17:45;13.60;77.20
14006;DHT22;7078;51.542;7.314;2024-03-17T10:20:19;13.50;75.50
14006;DHT22;7078;51.542;7.314;2024-03-17T10:23:05;13.50;75.20
14006;DHT22;7078;51.542;7.314;2024-03-17T10:25:33;13.40;75.10
14006;DHT22;7078;51.542;7.314;2024-03-17T10:28:00;13.30;75.40
14006;DHT22;7078;51.542;7.314;2024-03-17T10:30:34;13.30;75.60
14006;DHT22;7078;51.542;7.314;2024-03-17T10:32:59;13.30;76.60
14006;DHT22;7078;51.542;7.314;2024-03-17T10:35:31;13.40;76.40
14006;DHT22;7078;51.542;7.314;2024-03-17T10:38:02;13.40;74.90
14006;DHT22;7078;51.542;7.314;2024-03-17T10:40:29;13.40;73.60
14006;DHT22;7078;51.542;7.314;2024-03-17T10:42:56;13.30;74.30
14006;DHT22;7078;51.542;7.314;2024-03-17T10:45:22;13.30;74.90
14006;DHT22;7078;51.542;7.314;2024-03-17T10:47:51;13.20;75.00
14006;DHT22;7078;51.542;7.314;2024-03-17T10:50:22;13.20;76.60
14006;DHT22;7078;51.542;7.314;2024-03-17T10:52:51;13.30;77.20
14006;DHT22;7078;51.542;7.314;2024-03-17T10:55:24;13.50;78.00
14006;DHT22;7078;51.542;7.314;2024-03-17T10:57:54;13.60;77.20
14006;DHT22;7078;51.542;7.314;2024-03-17T11:00:23;13.60;74.10
14006;DHT22;7078;51.542;7.314;2024-03-17T11:02:51;13.70;73.90
14006;DHT22;7078;51.542;7.314;2024-03-17T11:07:46;13.60;72.80
14006;DHT22;7078;51.542;7.314;2024-03-17T11:10:25;13.60;74.10
14006;DHT22;7078;51.542;7.314;2024-03-17T11:12:54;13.60;74.40
14006;DHT22;7078;51.542;7.314;2024-03-17T11:21:00;13.80;73.60
14006;DHT22;7078;51.542;7.314;2024-03-17T11:23:32;13.90;73.60
14006;DHT22;7078;51.542;7.314;2024-03-17T11:25:58;14.20;71.90
14006;DHT22;7078;51.542;7.314;2024-03-17T11:33:59;14.60;69.70
14006;DHT22;7078;51.542;7.314;2024-03-17T11:36:46;14.70;70.10
14006;DHT22;7078;51.542;7.314;2024-03-17T11:39:11;14.80;69.70
14006;DHT22;7078;51.542;7.314;2024-03-17T11:41:46;14.80;67.30
14006;DHT22;7078;51.542;7.314;2024-03-17T11:47:04;14.80;66.80
14006;DHT22;7078;51.542;7.314;2024-03-17T11:49:31;14.70;65.70
14006;DHT22;7078;51.542;7.314;2024-03-17T11:52:14;14.60;66.20
14006;DHT22;7078;51.542;7.314;2024-03-17T11:54:45;14.60;66.90
14006;DHT22;7078;51.542;7.314;2024-03-17T11:57:14;14.80;66.30
14006;DHT22;7078;51.542;7.314;2024-03-17T11:59:40;14.80;65.40
14006;DHT22;7078;51.542;7.314;2024-03-17T12:04:47;14.90;66.00
14006;DHT22;7078;51.542;7.314;2024-03-17T12:07:16;15.10;64.70
14006;DHT22;7078;51.542;7.314;2024-03-17T12:09:42;15.20;64.20
14006;DHT22;7078;51.542;7.314;2024-03-17T12:12:17;15.20;64.40
14006;DHT22;7078;51.542;7.314;2024-03-17T12:14:44;15.30;63.70
14006;DHT22;7078;51.542;7.314;2024-03-17T12:17:11;15.30;62.70
14006;DHT22;7078;51.542;7.314;2024-03-17T12:19:38;15.40;62.80
14006;DHT22;7078;51.542;7.314;2024-03-17T12:22:05;15.40;63.20
14006;DHT22;7078;51.542;7.314;2024-03-17T12:24:33;15.40;64.60
14006;DHT22;7078;51.542;7.314;2024-03-17T12:27:00;15.30;65.10
14006;DHT22;7078;51.542;7.314;2024-03-17T12:29:38;15.30;64.60
14006;DHT22;7078;51.542;7.314;2024-03-17T12:34:35;15.50;61.90
14006;DHT22;7078;51.542;7.314;2024-03-17T12:37:01;15.50;60.50
14006;DHT22;7078;51.542;7.314;2024-03-17T12:39:28;15.60;61.20
14006;DHT22;7078;51.542;7.314;2024-03-17T12:42:07;15.50;63.30
14006;DHT22;7078;51.542;7.314;2024-03-17T12:44:38;15.40;63.80
14006;DHT22;7078;51.542;7.314;2024-03-17T12:47:08;15.30;64.10
14006;DHT22;7078;51.542;7.314;2024-03-17T12:49:50;15.20;63.20
14006;DHT22;7078;51.542;7.314;2024-03-17T12:54:45;15.20;65.50
14006;DHT22;7078;51.542;7.314;2024-03-17T12:57:20;15.10;64.30
14006;DHT22;7078;51.542;7.314;2024-03-17T13:00:17;15.10;65.10
14006;DHT22;7078;51.542;7.314;2024-03-17T13:03:03;15.00;64.50
14006;DHT22;7078;51.542;7.314;2024-03-17T13:05:32;14.90;65.40
14006;DHT22;7078;51.542;7.314;2024-03-17T13:07:58;15.00;64.90
14006;DHT22;7078;51.542;7.314;2024-03-17T13:10:25;15.00;66.30
14006;DHT22;7078;51.542;7.314;2024-03-17T13:13:04;15.00;66.40
14006;DHT22;7078;51.542;7.314;2024-03-17T13:15:31;15.20;66.10
14006;DHT22;7078;51.542;7.314;2024-03-17T13:18:00;15.30;65.90
14006;DHT22;7078;51.542;7.314;2024-03-17T13:20:26;15.20;66.20
14006;DHT22;7078;51.542;7.314;2024-03-17T13:22:52;15.30;66.60
14006;DHT22;7078;51.542;7.314;2024-03-17T13:25:20;15.40;65.70
14006;DHT22;7078;51.542;7.314;2024-03-17T13:27:50;15.60;65.00
14006;DHT22;7078;51.542;7.314;2024-03-17T13:30:17;15.80;63.70
14006;DHT22;7078;51.542;7.314;2024-03-17T13:32:43;15.70;62.50
14006;DHT22;7078;51.542;7.314;2024-03-17T13:35:18;15.70;62.40
14006;DHT22;7078;51.542;7.314;2024-03-17T13:37:49;15.70;61.30
14006;DHT22;7078;51.542;7.314;2024-03-17T13:40:16;15.80;59.80
14006;DHT22;7078;51.542;7.314;2024-03-17T13:42:44;15.70;59.60
14006;DHT22;7078;51.542;7.314;2024-03-17T13:45:11;15.50;60.30
14006;DHT22;7078;51.542;7.314;2024-03-17T13:47:37;15.50;60.70
14006;DHT22;7078;51.542;7.314;2024-03-17T13:50:03;15.60;60.10
14006;DHT22;7078;51.542;7.314;2024-03-17T13:52:32;15.70;60.10
14006;DHT22;7078;51.542;7.314;2024-03-17T13:54:58;15.70;60.40
14006;DHT22;7078;51.542;7.314;2024-03-17T13:57:24;15.80;60.30
14006;DHT22;7078;51.542;7.314;2024-03-17T13:59:50;15.80;60.90
14006;DHT22;7078;51.542;7.314;2024-03-17T14:02:17;15.90;60.40
14006;DHT22;7078;51.542;7.314;2024-03-17T14:04:44;15.80;60.10
14006;DHT22;7078;51.542;7.314;2024-03-17T14:07:09;15.60;60.40
14006;DHT22;7078;51.542;7.314;2024-03-17T14:09:35;15.50;61.60
14006;DHT22;7078;51.542;7.314;2024-03-17T14:12:00;15.60;62.10
14006;DHT22;7078;51.542;7.314;2024-03-17T14:14:26;15.60;62.10
14006;DHT22;7078;51.542;7.314;2024-03-17T14:16:51;15.60;62.30
14006;DHT22;7078;51.542;7.314;2024-03-17T14:19:17;15.60;61.80
14006;DHT22;7078;51.542;7.314;2024-03-17T14:21:42;15.50;62.40
14006;DHT22;7078;51.542;7.314;2024-03-17T14:24:08;15.40;63.70
14006;DHT22;7078;51.542;7.314;2024-03-17T14:26:35;15.40;62.30
14006;DHT22;7078;51.542;7.314;2024-03-17T14:29:02;15.40;62.30
14006;DHT22;7078;51.542;7.314;2024-03-17T14:31:31;15.30;62.30
14006;DHT22;7078;51.542;7.314;2024-03-17T14:33:58;15.20;62.20
14006;DHT22;7078;51.542;7.314;2024-03-17T14:36:24;15.10;62.60
14006;DHT22;7078;51.542;7.314;2024-03-17T14:38:52;15.00;62.70
14006;DHT22;7078;51.542;7.314;2024-03-17T14:41:19;15.00;63.50
14006;DHT22;7078;51.542;7.314;2024-03-17T14:43:45;14.90;64.90
14006;DHT22;7078;51.542;7.314;2024-03-17T14:46:11;14.90;64.60
14006;DHT22;7078;51.542;7.314;2024-03-17T14:48:39;14.80;64.50
14006;DHT22;7078;51.542;7.314;2024-03-17T14:51:05;14.80;64.30
14006;DHT22;7078;51.542;7.314;2024-03-17T14:53:30;14.80;65.40
14006;DHT22;7078;51.542;7.314;2024-03-17T14:55:56;14.80;64.70
14006;DHT22;7078;51.542;7.314;2024-03-17T14:58:21;14.80;64.80
14006;DHT22;7078;51.542;7.314;2024-03-17T15:00:47;14.80;64.30
14006;DHT22;7078;51.542;7.314;2024-03-17T15:03:13;14.80;64.60
14006;DHT22;7078;51.542;7.314;2024-03-17T15:05:39;14.90;64.50
14006;DHT22;7078;51.542;7.314;2024-03-17T15:08:04;14.90;64.80
14006;DHT22;7078;51.542;7.314;2024-03-17T15:10:30;14.90;63.80
14006;DHT22;7078;51.542;7.314;2024-03-17T15:12:56;14.80;63.40
14006;DHT22;7078;51.542;7.314;2024-03-17T15:15:22;14.80;64.10
14006;DHT22;7078;51.542;7.314;2024-03-17T15:17:47;14.80;63.70
14006;DHT22;7078;51.542;7.314;2024-03-17T15:20:16;14.80;63.20
14006;DHT22;7078;51.542;7.314;2024-03-17T15:22:48;14.80;64.30
14006;DHT22;7078;51.542;7.314;2024-03-17T15:25:15;14.80;64.30
14006;DHT22;7078;51.542;7.314;2024-03-17T15:27:42;14.70;64.40
14006;DHT22;7078;51.542;7.314;2024-03-17T15:30:10;14.70;65.40
14006;DHT22;7078;51.542;7.314;2024-03-17T15:32:36;14.70;65.50
14006;DHT22;7078;51.542;7.314;2024-03-17T15:35:02;14.70;66.00
14006;DHT22;7078;51.542;7.314;2024-03-17T15:37:28;14.70;65.40
14006;DHT22;7078;51.542;7.314;2024-03-17T15:39:54;14.70;63.20
14006;DHT22;7078;51.542;7.314;2024-03-17T15:42:21;14.70;63.30
14006;DHT22;7078;51.542;7.314;2024-03-17T15:44:46;14.60;64.90
14006;DHT22;7078;51.542;7.314;2024-03-17T15:47:13;14.60;64.50
14006;DHT22;7078;51.542;7.314;2024-03-17T15:49:38;14.60;64.90
14006;DHT22;7078;51.542;7.314;2024-03-17T15:52:04;14.50;66.20
14006;DHT22;7078;51.542;7.314;2024-03-17T15:54:30;14.60;67.00
14006;DHT22;7078;51.542;7.314;2024-03-17T15:56:55;14.50;65.50
14006;DHT22;7078;51.542;7.314;2024-03-17T15:59:21;14.50;65.40
14006;DHT22;7078;51.542;7.314;2024-03-17T16:01:48;14.50;67.20
14006;DHT22;7078;51.542;7.314;2024-03-17T16:04:17;14.50;70.70
14006;DHT22;7078;51.542;7.314;2024-03-17T16:06:44;14.60;70.40
14006;DHT22;7078;51.542;7.314;2024-03-17T16:09:13;14.60;69.40
14006;DHT22;7078;51.542;7.314;2024-03-17T16:11:39;14.70;71.30
14006;DHT22;7078;51.542;7.314;2024-03-17T16:14:06;14.70;67.20
14006;DHT22;7078;51.542;7.314;2024-03-17T16:16:33;14.70;67.60
14006;DHT22;7078;51.542;7.314;2024-03-17T16:18:59;14.70;69.60
14006;DHT22;7078;51.542;7.314;2024-03-17T16:21:26;14.80;67.50